Time;durP1;ratioP1;P1;durP2;ratioP2;P2;SDS_P1;SDS_P2;PMS_P1;PMS_P2;Temp;Humidity;BMP_temperature;BMP_pressure;BME280_temperature;BME280_humidity;BME280_pressure;Samples;Min_cycle;Max_cycle;Signal;HPM_P1;HPM_P2
2023/03/28 00:00:41;;;;;;;3.97;3.00;;;2.10;96.20;;;;;;5078962;28;20204;-78
2023/03/28 00:03:08;;;;;;;4.83;3.00;;;2.10;95.70;;;;;;5077303;28;20685;-85
2023/03/28 00:05:40;;;;;;;4.40;3.17;;;1.90;95.40;;;;;;5081386;28;20216;-79
2023/03/28 00:08:07;;;;;;;4.27;2.90;;;1.90;95.70;;;;;;5079934;28;20263;-79
2023/03/28 00:10:34;;;;;;;8.23;2.87;;;1.80;95.60;;;;;;5076201;28;20205;-79
2023/03/28 00:13:01;;;;;;;4.07;2.80;;;1.80;95.70;;;;;;5087692;28;20572;-82
2023/03/28 00:15:28;;;;;;;4.80;2.80;;;1.90;95.50;;;;;;5085971;28;21031;-79
2023/03/28 00:17:55;;;;;;;3.73;3.20;;;1.90;95.40;;;;;;5080438;28;20278;-79
2023/03/28 00:20:22;;;;;;;3.50;2.73;;;1.80;95.40;;;;;;5080508;28;20204;-79
2023/03/28 00:22:50;;;;;;;5.33;3.07;;;1.80;95.50;;;;;;5086233;28;20217;-79
2023/03/28 00:25:17;;;;;;;3.57;3.13;;;1.70;95.70;;;;;;5068648;28;20206;-78
2023/03/28 00:27:44;;;;;;;5.03;3.47;;;1.90;95.70;;;;;;5077668;28;20567;-79
2023/03/28 00:30:11;;;;;;;4.30;3.03;;;1.80;95.40;;;;;;5082310;28;20582;-79
2023/03/28 00:32:38;;;;;;;4.13;3.23;;;1.80;95.60;;;;;;5086444;28;20197;-79
2023/03/28 00:35:06;;;;;;;4.03;3.00;;;1.90;95.90;;;;;;5087070;28;20203;-78
2023/03/28 00:37:33;;;;;;;4.87;3.40;;;1.90;95.50;;;;;;5076137;28;20204;-78
2023/03/28 00:40:01;;;;;;;4.73;2.70;;;1.90;95.40;;;;;;5080400;28;20208;-81
2023/03/28 00:42:28;;;;;;;4.43;2.80;;;1.90;95.00;;;;;;5083420;28;20598;-79
2023/03/28 00:44:56;;;;;;;4.13;3.00;;;1.90;94.80;;;;;;5074449;28;20208;-79
2023/03/28 00:47:40;;;;;;;5.00;3.00;;;2.00;95.00;;;;;;5082544;28;20226;-79
2023/03/28 00:50:11;;;;;;;4.53;3.10;;;2.00;94.40;;;;;;5082771;28;20215;-78
2023/03/28 00:52:42;;;;;;;5.20;3.27;;;2.10;94.60;;;;;;5080714;28;20193;-80
2023/03/28 00:55:15;;;;;;;3.00;2.70;;;2.10;94.30;;;;;;5079218;28;20280;-79
2023/03/28 00:57:43;;;;;;;3.93;3.10;;;2.20;94.20;;;;;;5082854;28;20675;-78
2023/03/28 01:00:12;;;;;;;5.17;2.77;;;2.10;94.40;;;;;;5081121;28;20295;-78
2023/03/28 01:02:44;;;;;;;3.27;2.97;;;2.20;93.90;;;;;;5087899;28;20258;-83
2023/03/28 01:05:13;;;;;;;3.33;3.03;;;2.10;93.80;;;;;;5079716;28;20200;-78
2023/03/28 01:07:45;;;;;;;3.83;3.00;;;2.00;94.30;;;;;;5073124;28;20229;-80
2023/03/28 01:10:15;;;;;;;4.00;2.90;;;2.00;94.00;;;;;;5075429;28;20685;-81
2023/03/28 01:12:43;;;;;;;5.40;3.83;;;2.10;94.50;;;;;;5077007;28;20280;-79
2023/03/28 01:15:11;;;;;;;5.03;3.10;;;2.10;94.00;;;;;;5076179;28;20208;-78
2023/03/28 01:17:40;;;;;;;3.93;3.40;;;2.20;93.70;;;;;;5075537;28;20205;-80
2023/03/28 01:20:21;;;;;;;5.23;3.63;;;2.10;94.40;;;;;;5088876;28;20245;-80
2023/03/28 01:23:48;;;;;;;5.63;3.47;;;2.00;94.20;;;;;;5091523;28;20220;-79
2023/03/28 01:26:39;;;;;;;4.73;3.80;;;1.90;94.40;;;;;;5050536;28;20220;-78
2023/03/28 01:29:45;;;;;;;5.33;3.73;;;1.80;95.10;;;;;;5078090;28;20287;-79
2023/03/28 01:32:45;;;;;;;5.60;4.07;;;1.80;95.00;;;;;;5088288;28;20197;-79
2023/03/28 01:35:41;;;;;;;6.13;3.80;;;1.70;95.10;;;;;;5080354;28;20201;-79
2023/03/28 01:38:17;;;;;;;8.20;4.33;;;1.70;95.20;;;;;;5054158;28;20547;-78
2023/03/28 01:40:49;;;;;;;7.33;4.30;;;1.60;95.40;;;;;;5078991;28;20199;-78
2023/03/28 01:43:28;;;;;;;5.30;4.07;;;1.70;95.30;;;;;;5077806;28;20189;-79
2023/03/28 01:46:01;;;;;;;5.73;4.07;;;1.70;95.30;;;;;;5083592;28;20550;-78
2023/03/28 01:48:40;;;;;;;6.40;4.30;;;1.70;95.00;;;;;;5078844;28;20204;-79
2023/03/28 01:51:15;;;;;;;5.23;4.17;;;1.80;95.50;;;;;;5078467;28;20507;-79
2023/03/28 01:53:49;;;;;;;5.50;4.30;;;1.70;95.60;;;;;;5075386;28;20189;-79
2023/03/28 01:56:21;;;;;;;5.43;4.30;;;1.70;95.10;;;;;;5082914;28;20200;-78
2023/03/28 01:58:58;;;;;;;6.37;4.53;;;1.70;95.30;;;;;;5078796;28;20238;-78
2023/03/28 02:01:35;;;;;;;6.80;4.50;;;1.80;95.20;;;;;;5085320;28;20196;-79
2023/03/28 02:04:06;;;;;;;5.30;4.73;;;1.70;95.00;;;;;;5082818;28;20197;-78
2023/03/28 02:06:37;;;;;;;9.63;4.47;;;1.70;95.60;;;;;;5078798;28;20221;-78
2023/03/28 02:09:07;;;;;;;5.80;4.43;;;1.70;95.70;;;;;;5080281;28;20246;-79
2023/03/28 02:11:35;;;;;;;5.83;4.70;;;1.60;95.20;;;;;;5090506;28;20701;-79
2023/03/28 02:14:10;;;;;;;6.23;4.50;;;1.60;95.80;;;;;;5083065;28;20212;-79
2023/03/28 02:16:41;;;;;;;6.47;4.43;;;1.60;95.30;;;;;;5077439;28;20200;-78
2023/03/28 02:19:09;;;;;;;5.37;4.87;;;1.50;95.60;;;;;;5073830;28;20231;-78
2023/03/28 02:21:42;;;;;;;7.83;5.07;;;1.40;95.80;;;;;;5080951;28;20189;-79
2023/03/28 02:24:11;;;;;;;7.07;5.10;;;1.40;96.00;;;;;;5079149;28;20192;-78
2023/03/28 02:26:39;;;;;;;8.30;5.33;;;1.50;95.60;;;;;;5082524;28;20971;-79
2023/03/28 02:29:07;;;;;;;6.10;4.77;;;1.50;95.50;;;;;;5085827;28;20196;-81
2023/03/28 02:31:35;;;;;;;5.53;4.90;;;1.50;95.90;;;;;;5083911;28;20220;-79
2023/03/28 02:34:02;;;;;;;7.80;5.00;;;1.60;95.50;;;;;;5066915;28;20269;-80
2023/03/28 02:36:44;;;;;;;7.80;4.80;;;1.50;95.20;;;;;;5089110;28;20619;-78
2023/03/28 02:39:38;;;;;;;9.17;5.00;;;1.60;95.10;;;;;;5072716;28;20193;-79
2023/03/28 02:42:39;;;;;;;6.37;4.70;;;1.70;94.70;;;;;;5064340;28;20203;-78
2023/03/28 02:45:24;;;;;;;9.33;5.10;;;1.70;95.00;;;;;;5042367;28;20204;-78
2023/03/28 02:47:59;;;;;;;7.63;4.97;;;1.70;94.40;;;;;;5086442;28;20208;-79
2023/03/28 02:50:34;;;;;;;8.17;4.87;;;1.60;94.50;;;;;;5075784;28;20219;-78
2023/03/28 02:53:05;;;;;;;7.17;4.63;;;1.50;94.80;;;;;;5074475;28;20579;-78
2023/03/28 02:55:38;;;;;;;7.10;4.83;;;1.30;94.80;;;;;;5077092;28;20211;-78
2023/03/28 02:58:09;;;;;;;8.10;4.90;;;1.40;95.00;;;;;;5078429;28;20204;-78
2023/03/28 03:00:38;;;;;;;7.90;5.30;;;1.50;95.30;;;;;;5054407;28;20197;-79
2023/03/28 03:03:09;;;;;;;7.47;5.10;;;1.60;94.40;;;;;;5071551;28;20563;-79
2023/03/28 03:05:37;;;;;;;7.83;5.40;;;1.40;94.60;;;;;;5084941;28;20199;-78
2023/03/28 03:08:04;;;;;;;6.80;5.60;;;1.30;94.90;;;;;;5079942;28;20217;-76
2023/03/28 03:10:30;;;;;;;7.00;5.03;;;1.20;94.70;;;;;;5073065;28;20193;-77
2023/03/28 03:12:59;;;;;;;6.97;4.93;;;1.20;94.90;;;;;;5074131;28;20192;-76
2023/03/28 03:15:29;;;;;;;7.17;5.50;;;1.40;94.40;;;;;;5090328;28;20192;-76
2023/03/28 03:17:57;;;;;;;8.10;4.83;;;1.30;94.50;;;;;;5084176;28;20267;-76
2023/03/28 03:20:25;;;;;;;7.07;5.13;;;1.30;94.50;;;;;;5078291;28;20193;-76
2023/03/28 03:22:53;;;;;;;6.43;5.23;;;1.30;94.90;;;;;;5079837;28;20217;-78
2023/03/28 03:25:19;;;;;;;7.17;5.20;;;1.20;94.60;;;;;;5081220;28;20208;-76
2023/03/28 03:27:46;;;;;;;5.73;4.93;;;1.20;94.60;;;;;;5084290;28;20244;-80
2023/03/28 03:30:14;;;;;;;6.07;5.00;;;1.20;94.60;;;;;;5082605;28;20896;-78
2023/03/28 03:32:42;;;;;;;6.67;5.07;;;1.20;94.70;;;;;;5077764;28;20618;-77
2023/03/28 03:35:10;;;;;;;9.30;5.27;;;1.30;94.60;;;;;;5084227;28;20580;-76
2023/03/28 03:37:37;;;;;;;9.83;5.30;;;1.30;94.30;;;;;;5089821;28;20204;-77
2023/03/28 03:40:05;;;;;;;8.77;5.33;;;1.30;94.30;;;;;;5086564;28;20559;-76
2023/03/28 03:42:32;;;;;;;7.13;5.03;;;1.20;94.30;;;;;;5082940;28;20593;-76
2023/03/28 03:44:59;;;;;;;7.03;4.67;;;1.30;94.60;;;;;;5083551;28;20193;-78
2023/03/28 03:47:27;;;;;;;10.57;5.70;;;1.30;94.30;;;;;;5074927;28;20221;-76
2023/03/28 03:49:54;;;;;;;9.13;5.40;;;1.20;94.30;;;;;;5085944;28;20899;-76
2023/03/28 03:52:21;;;;;;;8.23;5.47;;;1.10;94.40;;;;;;5083326;28;20219;-76
2023/03/28 03:54:47;;;;;;;6.93;5.07;;;1.10;94.50;;;;;;5083931;28;20200;-77
2023/03/28 03:57:15;;;;;;;6.60;5.43;;;1.20;94.50;;;;;;5084356;28;20205;-78
2023/03/28 03:59:41;;;;;;;6.13;5.40;;;1.10;94.50;;;;;;5080163;28;20224;-76
2023/03/28 04:02:08;;;;;;;6.40;4.80;;;1.30;94.80;;;;;;5069638;28;20206;-77
2023/03/28 04:04:39;;;;;;;7.67;5.17;;;1.30;94.30;;;;;;5083751;28;20658;-76
2023/03/28 04:07:06;;;;;;;7.87;5.43;;;1.20;94.30;;;;;;5082011;28;20759;-76
2023/03/28 04:09:32;;;;;;;10.07;5.63;;;1.10;94.60;;;;;;5102418;28;20196;-76
2023/03/28 04:11:59;;;;;;;7.30;5.33;;;1.00;94.80;;;;;;5084817;28;20196;-77
2023/03/28 04:14:26;;;;;;;7.90;5.13;;;1.10;94.60;;;;;;5078686;28;20197;-76
2023/03/28 04:16:53;;;;;;;7.73;5.17;;;1.20;94.30;;;;;;5076887;28;20194;-79
2023/03/28 04:19:23;;;;;;;8.40;5.20;;;1.30;94.30;;;;;;5084913;28;20200;-76
2023/03/28 04:21:55;;;;;;;9.47;5.00;;;1.20;94.30;;;;;;5087916;28;20224;-77
2023/03/28 04:24:23;;;;;;;9.83;5.13;;;1.20;94.30;;;;;;5090043;28;20646;-77
2023/03/28 04:26:54;;;;;;;10.40;6.03;;;1.10;94.20;;;;;;5091829;28;20311;-77
2023/03/28 04:29:29;;;;;;;7.10;5.10;;;1.00;94.60;;;;;;5090566;28;20201;-79
2023/03/28 04:31:56;;;;;;;7.33;5.60;;;1.00;94.20;;;;;;5090076;28;20192;-77
2023/03/28 04:34:28;;;;;;;8.60;5.07;;;1.00;94.20;;;;;;5075060;28;20193;-78
2023/03/28 04:37:00;;;;;;;10.07;5.27;;;1.20;95.00;;;;;;5088946;28;20242;-79
2023/03/28 04:39:28;;;;;;;9.33;5.57;;;1.30;94.80;;;;;;5077911;28;20197;-82
2023/03/28 04:41:55;;;;;;;8.00;5.83;;;1.30;94.30;;;;;;5076692;28;20193;-78
2023/03/28 04:44:21;;;;;;;11.30;5.93;;;1.20;94.30;;;;;;5083393;28;20204;-77
2023/03/28 04:46:49;;;;;;;7.53;5.53;;;1.10;94.70;;;;;;5089247;28;20205;-77
2023/03/28 04:49:17;;;;;;;8.63;5.57;;;1.30;94.30;;;;;;5089028;28;20679;-79
2023/03/28 04:51:44;;;;;;;11.57;5.70;;;1.20;94.00;;;;;;5086270;28;20579;-83
2023/03/28 04:54:12;;;;;;;7.70;5.73;;;1.20;94.30;;;;;;5089296;28;20205;-76
2023/03/28 04:56:39;;;;;;;9.03;5.40;;;1.30;93.80;;;;;;5080742;28;20212;-79
2023/03/28 04:59:06;;;;;;;7.20;5.40;;;1.20;93.70;;;;;;5078088;28;20201;-78
2023/03/28 05:01:33;;;;;;;8.23;5.57;;;1.30;93.80;;;;;;5082920;28;20207;-77
2023/03/28 05:04:00;;;;;;;10.87;5.83;;;1.30;93.60;;;;;;5081199;28;20285;-78
2023/03/28 05:06:27;;;;;;;9.10;6.17;;;1.10;93.70;;;;;;5075535;28;20219;-85
2023/03/28 05:08:54;;;;;;;10.07;6.30;;;1.00;94.20;;;;;;5077082;28;20693;-79
2023/03/28 05:11:24;;;;;;;7.23;5.57;;;0.80;94.20;;;;;;5083053;28;20253;-80
2023/03/28 05:13:51;;;;;;;7.83;5.60;;;0.90;94.70;;;;;;5083881;28;20208;-79
2023/03/28 05:16:18;;;;;;;9.23;5.93;;;1.00;94.80;;;;;;5076592;28;20742;-77
2023/03/28 05:18:46;;;;;;;9.63;6.20;;;1.00;94.20;;;;;;5080576;28;20211;-77
2023/03/28 05:21:13;;;;;;;9.00;5.33;;;0.90;94.20;;;;;;5089802;28;20228;-77
2023/03/28 05:23:39;;;;;;;8.20;5.67;;;1.00;95.10;;;;;;5080825;28;20220;-80
2023/03/28 05:26:07;;;;;;;7.83;5.83;;;1.00;94.20;;;;;;5080829;28;20200;-79
2023/03/28 05:28:35;;;;;;;9.60;6.47;;;1.00;94.20;;;;;;5078746;28;20219;-77
2023/03/28 05:31:02;;;;;;;8.90;6.20;;;1.10;94.30;;;;;;5089941;28;20217;-82
2023/03/28 05:33:31;;;;;;;11.33;5.90;;;0.90;94.20;;;;;;5079607;28;20197;-77
2023/03/28 05:35:59;;;;;;;10.90;6.03;;;0.80;94.20;;;;;;5071545;28;20199;-77
2023/03/28 05:38:25;;;;;;;11.63;6.07;;;0.90;95.20;;;;;;5076683;28;20589;-79
2023/03/28 05:40:53;;;;;;;9.50;5.83;;;0.80;94.20;;;;;;5072104;28;20201;-78
2023/03/28 05:43:20;;;;;;;10.23;6.37;;;0.80;94.50;;;;;;5075799;28;20201;-77
2023/03/28 05:45:48;;;;;;;9.17;5.80;;;0.70;94.70;;;;;;5075915;28;20188;-77
2023/03/28 05:48:14;;;;;;;8.67;5.83;;;0.90;94.80;;;;;;5080125;28;20688;-76
2023/03/28 05:50:41;;;;;;;9.13;5.77;;;1.00;94.50;;;;;;5079451;28;20315;-79
2023/03/28 05:53:08;;;;;;;9.33;5.90;;;1.10;94.20;;;;;;5075671;28;20197;-78
2023/03/28 05:55:35;;;;;;;10.93;5.43;;;1.20;94.10;;;;;;5080376;28;20197;-77
2023/03/28 05:58:02;;;;;;;9.50;5.90;;;1.10;93.50;;;;;;5077122;28;20203;-76
2023/03/28 06:00:28;;;;;;;9.53;5.57;;;1.10;94.20;;;;;;5076141;28;20212;-81
2023/03/28 06:02:57;;;;;;;9.40;5.60;;;1.30;93.50;;;;;;5088691;28;20193;-77
2023/03/28 06:05:25;;;;;;;11.47;6.37;;;1.40;93.20;;;;;;5077638;28;20477;-76
2023/03/28 06:07:51;;;;;;;9.30;6.50;;;1.40;93.50;;;;;;5079235;28;20217;-75
2023/03/28 06:10:19;;;;;;;12.87;5.63;;;1.30;93.00;;;;;;5082834;28;20209;-80
2023/03/28 06:12:46;;;;;;;9.63;5.63;;;1.30;93.40;;;;;;5066718;28;20201;-77
2023/03/28 06:15:13;;;;;;;9.20;5.93;;;1.50;92.90;;;;;;5076328;28;20201;-75
2023/03/28 06:17:40;;;;;;;8.23;5.40;;;1.40;92.70;;;;;;5077129;28;20211;-79
2023/03/28 06:20:10;;;;;;;10.97;5.80;;;1.50;92.70;;;;;;5075653;28;20222;-75
2023/03/28 06:22:37;;;;;;;10.60;5.60;;;1.70;92.70;;;;;;5085724;28;20222;-78
2023/03/28 06:25:05;;;;;;;9.33;4.87;;;1.90;92.00;;;;;;5087786;28;20189;-79
2023/03/28 06:27:33;;;;;;;8.67;5.03;;;2.00;91.40;;;;;;5076297;28;20217;-80
2023/03/28 06:30:00;;;;;;;9.43;5.23;;;2.10;91.40;;;;;;5077680;28;20220;-78
2023/03/28 06:32:28;;;;;;;11.80;5.60;;;2.20;91.30;;;;;;5092648;28;20200;-79
2023/03/28 06:34:54;;;;;;;11.03;5.13;;;2.30;90.80;;;;;;5084437;28;20192;-79
2023/03/28 06:37:23;;;;;;;7.57;4.97;;;2.40;89.60;;;;;;5078860;28;20200;-78
2023/03/28 06:39:51;;;;;;;6.20;4.70;;;2.50;89.20;;;;;;5084917;28;20193;-77
2023/03/28 06:42:19;;;;;;;11.00;5.20;;;2.50;88.70;;;;;;5080808;28;20228;-80
2023/03/28 06:44:46;;;;;;;11.13;4.83;;;2.40;89.50;;;;;;5084851;28;20236;-78
2023/03/28 06:47:12;;;;;;;7.10;5.03;;;2.20;90.00;;;;;;5097822;28;20200;-79
2023/03/28 06:49:40;;;;;;;7.03;4.57;;;2.60;90.30;;;;;;5073079;28;20203;-80
2023/03/28 06:52:07;;;;;;;9.33;4.90;;;2.80;87.20;;;;;;5089913;28;20209;-80
2023/03/28 06:54:35;;;;;;;7.07;4.40;;;3.00;86.60;;;;;;5081816;28;20630;-79
2023/03/28 06:57:02;;;;;;;10.80;4.43;;;3.10;83.70;;;;;;5097163;28;20582;-79
2023/03/28 06:59:29;;;;;;;8.67;4.20;;;3.30;81.20;;;;;;5083544;28;20212;-79
2023/03/28 07:01:56;;;;;;;7.37;3.40;;;3.40;81.20;;;;;;5083378;28;20551;-80
2023/03/28 07:04:23;;;;;;;11.63;4.17;;;3.50;79.10;;;;;;5080731;28;20209;-79
2023/03/28 07:06:49;;;;;;;6.87;3.63;;;3.50;77.50;;;;;;5084162;28;20196;-78
2023/03/28 07:09:17;;;;;;;6.90;3.87;;;3.70;76.20;;;;;;5078976;28;20688;-80
2023/03/28 07:11:45;;;;;;;5.83;4.00;;;3.60;75.40;;;;;;5080043;28;20196;-79
2023/03/28 07:14:12;;;;;;;5.80;3.73;;;3.60;75.90;;;;;;5086008;28;20200;-79
2023/03/28 07:16:39;;;;;;;7.77;3.90;;;3.70;75.80;;;;;;5091235;28;20261;-84
2023/03/28 07:19:06;;;;;;;8.33;3.50;;;3.70;75.50;;;;;;5077171;28;20679;-81
2023/03/28 07:21:33;;;;;;;7.63;4.00;;;3.50;69.00;;;;;;5084537;28;20875;-81
2023/03/28 07:24:00;;;;;;;9.43;4.30;;;3.40;76.00;;;;;;5081304;28;20197;-81
2023/03/28 07:26:27;;;;;;;9.30;4.10;;;3.40;75.70;;;;;;5090835;28;20197;-81
2023/03/28 07:28:55;;;;;;;6.67;3.77;;;3.20;76.80;;;;;;5081656;28;20304;-86
2023/03/28 07:31:23;;;;;;;6.90;2.80;;;3.30;73.60;;;;;;5086945;28;20204;-82
2023/03/28 07:33:50;;;;;;;7.13;3.43;;;3.30;74.60;;;;;;5065326;28;20296;-82
2023/03/28 07:36:19;;;;;;;8.17;3.40;;;3.10;74.40;;;;;;5077627;28;20212;-81
2023/03/28 07:38:46;;;;;;;7.87;3.50;;;3.00;76.90;;;;;;5074961;28;20213;-82
2023/03/28 07:41:13;;;;;;;7.90;3.30;;;3.10;75.50;;;;;;5081272;28;20212;-86
2023/03/28 07:43:40;;;;;;;8.07;3.00;;;3.30;76.20;;;;;;5084878;28;20287;-82
2023/03/28 07:46:10;;;;;;;6.53;3.47;;;3.30;75.00;;;;;;5079739;28;20203;-79
2023/03/28 07:48:39;;;;;;;10.67;3.93;;;3.30;75.80;;;;;;5087993;28;20218;-81
2023/03/28 07:51:08;;;;;;;6.63;3.30;;;3.80;76.30;;;;;;5086111;28;20204;-82
2023/03/28 07:53:37;;;;;;;5.77;2.93;;;3.90;70.10;;;;;;5088540;28;20196;-80
2023/03/28 07:56:04;;;;;;;7.77;3.23;;;3.90;68.60;;;;;;5086441;28;20225;-82
2023/03/28 07:58:31;;;;;;;6.67;3.30;;;4.10;64.90;;;;;;5087140;28;20199;-78
2023/03/28 08:01:04;;;;;;;10.67;3.13;;;4.20;60.10;;;;;;5076404;28;20215;-79
2023/03/28 08:03:32;;;;;;;22.53;7.70;;;4.10;62.70;;;;;;5082256;28;20731;-75
2023/03/28 08:06:01;;;;;;;14.37;4.23;;;4.00;64.00;;;;;;5085731;28;20672;-78
2023/03/28 08:08:29;;;;;;;6.40;2.67;;;4.10;64.60;;;;;;5076646;28;20251;-77
2023/03/28 08:10:56;;;;;;;5.93;3.37;;;4.20;60.20;;;;;;5077581;28;20204;-82
2023/03/28 08:13:23;;;;;;;4.93;3.23;;;4.20;61.60;;;;;;5079659;28;20197;-82
2023/03/28 08:15:50;;;;;;;6.40;3.27;;;4.20;61.90;;;;;;5081907;28;20699;-82
2023/03/28 08:18:19;;;;;;;7.07;3.50;;;4.00;58.70;;;;;;5083491;28;20277;-82
2023/03/28 08:20:48;;;;;;;4.23;2.70;;;3.90;60.70;;;;;;5085293;28;20649;-80
2023/03/28 08:23:15;;;;;;;5.80;2.77;;;3.90;58.90;;;;;;5079383;28;20225;-80
2023/03/28 08:25:43;;;;;;;6.70;2.57;;;4.10;57.20;;;;;;5080476;28;20196;-79
2023/03/28 08:28:10;;;;;;;8.03;2.90;;;4.20;55.10;;;;;;5077859;28;20217;-81
2023/03/28 08:30:37;;;;;;;5.77;2.77;;;4.40;56.20;;;;;;5079666;28;20232;-80
2023/03/28 08:33:05;;;;;;;5.30;3.17;;;4.80;47.80;;;;;;5072591;28;20205;-82
2023/03/28 08:35:32;;;;;;;7.47;2.40;;;5.10;45.40;;;;;;5076921;28;20200;-80
2023/03/28 08:38:00;;;;;;;5.47;2.30;;;5.50;44.70;;;;;;5084875;28;20574;-81
2023/03/28 08:40:28;;;;;;;5.10;2.30;;;5.70;38.20;;;;;;5081116;28;20205;-82
2023/03/28 08:43:20;;;;;;;4.43;2.40;;;5.80;37.30;;;;;;5080953;28;20655;-82
2023/03/28 08:45:51;;;;;;;6.73;2.40;;;6.00;37.00;;;;;;5070880;28;20200;-82
2023/03/28 08:48:25;;;;;;;4.60;2.20;;;6.00;34.70;;;;;;5086290;28;20311;-82
2023/03/28 08:50:57;;;;;;;2.70;1.87;;;5.90;37.10;;;;;;5058668;28;20214;-83
2023/03/28 08:53:33;;;;;;;3.37;2.00;;;5.70;34.60;;;;;;5091622;28;20201;-80
2023/03/28 08:56:02;;;;;;;6.37;2.30;;;5.60;32.60;;;;;;5077432;28;20224;-80
2023/03/28 08:58:35;;;;;;;4.03;2.13;;;5.60;33.10;;;;;;5076112;28;20212;-85
2023/03/28 09:01:03;;;;;;;4.13;2.10;;;5.70;33.80;;;;;;5068864;28;20187;-81
2023/03/28 09:03:33;;;;;;;5.43;1.90;;;5.80;30.80;;;;;;5074451;28;20286;-80
2023/03/28 09:06:06;;;;;;;4.20;2.00;;;6.20;30.10;;;;;;5085340;28;20291;-82
2023/03/28 09:09:18;;;;;;;4.10;1.90;;;6.10;28.80;;;;;;5093278;28;20691;-82
2023/03/28 09:11:54;;;;;;;4.00;2.13;;;5.90;29.90;;;;;;5055314;28;20250;-81
2023/03/28 09:14:49;;;;;;;4.67;2.00;;;5.50;31.00;;;;;;5087045;28;20602;-80
2023/03/28 09:17:23;;;;;;;6.00;1.80;;;5.20;31.90;;;;;;5085310;28;20659;-80
2023/03/28 09:20:10;;;;;;;4.20;2.00;;;5.40;28.20;;;;;;5095512;28;20188;-80
2023/03/28 09:22:45;;;;;;;2.60;2.10;;;5.10;30.30;;;;;;5079686;28;20225;-79
2023/03/28 09:25:31;;;;;;;3.53;1.67;;;5.00;32.10;;;;;;5086690;28;20545;-79
2023/03/28 09:28:06;;;;;;;4.23;2.07;;;4.90;30.60;;;;;;5092568;28;20217;-80
2023/03/28 09:30:37;;;;;;;8.70;1.70;;;4.80;30.20;;;;;;5083158;28;20204;-81
2023/03/28 09:33:12;;;;;;;3.73;1.40;;;5.40;26.70;;;;;;5090948;28;20193;-82
2023/03/28 09:35:40;;;;;;;6.10;1.70;;;6.60;22.50;;;;;;5084159;28;20200;-82
2023/03/28 09:38:18;;;;;;;4.70;2.00;;;7.20;23.00;;;;;;5083431;28;20200;-82
2023/03/28 09:40:49;;;;;;;1.98;1.73;;;7.50;21.00;;;;;;5079755;28;20546;-83
2023/03/28 09:43:24;;;;;;;2.22;1.70;;;7.40;23.20;;;;;;5072705;28;20204;-83
2023/03/28 09:45:59;;;;;;;5.95;2.13;;;8.20;21.50;;;;;;5056085;28;20212;-83
2023/03/28 09:48:28;;;;;;;2.28;1.60;;;7.80;22.00;;;;;;5071988;28;20225;-83
2023/03/28 09:50:57;;;;;;;3.50;1.80;;;7.40;20.50;;;;;;5072905;28;20200;-82
2023/03/28 09:53:27;;;;;;;2.28;1.40;;;7.00;20.60;;;;;;5076167;28;20201;-81
2023/03/28 09:55:59;;;;;;;3.83;1.57;;;6.50;19.40;;;;;;5069061;28;20237;-84
2023/03/28 09:58:26;;;;;;;2.57;1.40;;;6.10;19.80;;;;;;5075925;28;20254;-79
2023/03/28 10:00:55;;;;;;;4.97;1.67;;;5.60;21.90;;;;;;5079981;28;20213;-82
2023/03/28 10:03:28;;;;;;;2.50;1.80;;;5.40;24.50;;;;;;5075507;28;20580;-79
2023/03/28 10:05:56;;;;;;;3.83;1.80;;;5.60;25.90;;;;;;5074918;28;20197;-80
2023/03/28 10:08:31;;;;;;;3.07;1.80;;;5.70;26.10;;;;;;5077881;28;20728;-82
2023/03/28 10:11:06;;;;;;;5.10;2.00;;;5.60;26.00;;;;;;5092798;28;20188;-79
2023/03/28 10:13:39;;;;;;;4.90;2.20;;;5.50;27.10;;;;;;5085608;28;20196;-84
2023/03/28 10:16:07;;;;;;;4.27;2.20;;;5.30;26.60;;;;;;5072107;28;20617;-80
2023/03/28 10:18:35;;;;;;;3.57;1.93;;;5.10;28.10;;;;;;5074509;28;20209;-78
2023/03/28 10:21:13;;;;;;;5.30;2.30;;;5.30;27.80;;;;;;5078673;28;20203;-80
2023/03/28 10:23:44;;;;;;;3.70;2.00;;;5.20;27.70;;;;;;5072531;28;20248;-81
2023/03/28 10:26:20;;;;;;;3.77;2.10;;;5.30;28.90;;;;;;5065093;28;20725;-80
2023/03/28 10:28:51;;;;;;;4.33;2.20;;;6.00;26.40;;;;;;5095344;28;20211;-82
2023/03/28 10:31:27;;;;;;;3.33;1.87;;;6.60;24.60;;;;;;5086781;28;20303;-82
2023/03/28 10:33:56;;;;;;;3.70;2.00;;;7.20;25.20;;;;;;5090891;28;20192;-81
2023/03/28 10:36:30;;;;;;;2.88;1.67;;;7.20;23.00;;;;;;5081921;28;20207;-82
2023/03/28 10:38:58;;;;;;;2.63;1.77;;;6.80;22.70;;;;;;5086273;28;20201;-82
2023/03/28 10:41:27;;;;;;;5.30;1.80;;;6.30;22.30;;;;;;5076567;28;20201;-83
2023/03/28 10:43:56;;;;;;;3.47;1.90;;;6.00;22.10;;;;;;5080174;28;20203;-84
2023/03/28 10:46:28;;;;;;;3.27;1.70;;;6.00;22.90;;;;;;5087719;28;20203;-92
2023/03/28 10:48:59;;;;;;;4.97;1.80;;;6.70;22.60;;;;;;5083526;28;20240;-86
2023/03/28 10:51:29;;;;;;;3.50;1.90;;;7.30;23.10;;;;;;5064281;28;21144;-83
2023/03/28 10:54:22;;;;;;;2.75;1.98;;;7.30;23.10;;;;;;5082951;28;20258;-87
2023/03/28 10:56:54;;;;;;;2.97;1.60;;;7.30;21.20;;;;;;5087181;28;20201;-81
2023/03/28 10:59:38;;;;;;;3.75;2.10;;;7.40;23.20;;;;;;5071876;28;20869;-83
2023/03/28 11:02:32;;;;;;;5.75;1.80;;;7.60;23.30;;;;;;5081787;28;20205;-81
2023/03/28 11:05:04;;;;;;;3.00;1.90;;;8.20;23.70;;;;;;5070852;28;20193;-82
2023/03/28 11:07:36;;;;;;;14.40;4.93;;;8.60;24.00;;;;;;5082899;28;20208;-85
2023/03/28 11:10:14;;;;;;;3.60;1.63;;;8.90;20.20;;;;;;5082371;28;20220;-85
2023/03/28 11:12:55;;;;;;;2.05;1.50;;;8.80;18.10;;;;;;5068154;28;20193;-86
2023/03/28 11:15:30;;;;;;;3.95;2.28;;;8.10;17.90;;;;;;5078680;28;20193;-82
2023/03/28 11:18:08;;;;;;;3.50;1.83;;;7.60;19.90;;;;;;5080641;28;20598;-82
2023/03/28 11:20:49;;;;;;;3.67;1.90;;;7.20;19.50;;;;;;5078047;28;20230;-83
2023/03/28 11:23:40;;;;;;;1.88;1.67;;;7.00;22.90;;;;;;5079320;28;20303;-82
2023/03/28 11:26:11;;;;;;;4.85;2.00;;;7.60;21.40;;;;;;5078474;28;20197;-82
2023/03/28 11:28:52;;;;;;;4.10;2.20;;;7.70;18.60;;;;;;5088540;28;20203;-82
2023/03/28 11:31:24;;;;;;;4.50;2.00;;;7.40;19.70;;;;;;5088775;28;20200;-82
2023/03/28 11:33:59;;;;;;;2.35;1.73;;;7.10;20.80;;;;;;5084574;28;20284;-83
2023/03/28 11:36:31;;;;;;;3.55;1.70;;;6.80;22.70;;;;;;5093243;28;20195;-83
2023/03/28 11:39:05;;;;;;;3.05;1.70;;;6.60;22.50;;;;;;5077517;28;20227;-82
2023/03/28 11:41:36;;;;;;;3.23;1.90;;;6.50;22.50;;;;;;5075963;28;20192;-83
2023/03/28 11:44:12;;;;;;;2.72;2.13;;;6.90;24.30;;;;;;5057090;28;20194;-83
2023/03/28 11:46:45;;;;;;;2.33;1.40;;;7.40;20.80;;;;;;5079086;28;20551;-82
2023/03/28 11:49:18;;;;;;;2.25;1.88;;;7.60;18.70;;;;;;5083442;28;21107;-82
2023/03/28 11:51:54;;;;;;;2.72;1.77;;;7.50;18.20;;;;;;5071370;28;20684;-82
2023/03/28 11:54:28;;;;;;;2.80;1.85;;;7.30;19.40;;;;;;5080501;28;20262;-83
2023/03/28 11:56:59;;;;;;;3.97;2.07;;;7.20;20.00;;;;;;5067977;28;20237;-83
2023/03/28 11:59:35;;;;;;;3.73;1.90;;;7.20;21.20;;;;;;5059102;28;20212;-82
2023/03/28 12:02:10;;;;;;;2.00;1.80;;;7.10;21.10;;;;;;5083466;28;20547;-84
2023/03/28 12:04:43;;;;;;;5.65;2.10;;;7.30;21.10;;;;;;5079331;28;20196;-84
2023/03/28 12:07:20;;;;;;;4.20;2.00;;;7.40;23.20;;;;;;5089112;28;20204;-83
2023/03/28 12:10:02;;;;;;;4.35;2.03;;;7.60;23.30;;;;;;5079383;28;20213;-83
2023/03/28 12:12:31;;;;;;;3.35;2.00;;;7.80;19.90;;;;;;5090109;28;20250;-83
2023/03/28 12:15:05;;;;;;;4.45;2.00;;;7.70;19.20;;;;;;5083219;28;20657;-83
2023/03/28 12:17:36;;;;;;;4.90;2.00;;;7.60;19.50;;;;;;5079784;28;20225;-83
2023/03/28 12:20:06;;;;;;;2.13;1.77;;;7.50;19.50;;;;;;5087293;28;20211;-84
2023/03/28 12:22:40;;;;;;;3.42;2.13;;;7.60;20.30;;;;;;5077730;28;20209;-83
2023/03/28 12:25:14;;;;;;;5.85;2.75;;;7.70;19.00;;;;;;5082513;28;20191;-83
2023/03/28 12:27:54;;;;;;;4.95;2.20;;;7.70;19.80;;;;;;5080377;28;20228;-83
2023/03/28 12:30:29;;;;;;;4.20;2.40;;;8.00;20.30;;;;;;5078656;28;20652;-84
2023/03/28 12:33:05;;;;;;;2.22;2.00;;;8.20;20.70;;;;;;5059778;28;20201;-85
2023/03/28 12:35:39;;;;;;;5.63;4.03;;;8.20;20.90;;;;;;5077019;28;20262;-85
2023/03/28 12:38:16;;;;;;;5.78;2.00;;;8.20;19.00;;;;;;5085631;28;20190;-85
2023/03/28 12:40:54;;;;;;;2.95;2.15;;;7.90;17.90;;;;;;5085765;28;20224;-83
2023/03/28 12:43:26;;;;;;;5.78;2.65;;;8.00;19.20;;;;;;5076942;28;20197;-85
2023/03/28 12:45:59;;;;;;;3.35;2.10;;;7.90;20.00;;;;;;5059501;28;20288;-84
2023/03/28 12:48:34;;;;;;;5.45;3.78;;;7.70;18.50;;;;;;5103530;28;20202;-84
2023/03/28 12:51:09;;;;;;;4.10;2.25;;;7.50;19.20;;;;;;5086390;28;20227;-83
2023/03/28 12:53:43;;;;;;;4.22;1.95;;;7.60;18.60;;;;;;5087046;28;20200;-84
2023/03/28 12:56:12;;;;;;;2.80;2.00;;;7.70;19.80;;;;;;5086168;28;20204;-83
2023/03/28 12:58:40;;;;;;;3.75;2.20;;;7.80;19.00;;;;;;5085939;28;20192;-82
2023/03/28 13:01:42;;;;;;;5.22;2.50;;;7.70;19.30;;;;;;5078511;28;20208;-85
2023/03/28 13:04:28;;;;;;;4.30;2.10;;;7.60;18.20;;;;;;5087128;28;20248;-84
2023/03/28 13:07:05;;;;;;;7.10;2.30;;;7.10;18.90;;;;;;5091860;28;21127;-84
2023/03/28 13:09:50;;;;;;;4.82;2.40;;;6.90;19.70;;;;;;5077558;28;20227;-82
2023/03/28 13:12:33;;;;;;;10.55;7.35;;;7.20;22.20;;;;;;5079723;28;20253;-82
2023/03/28 13:15:02;;;;;;;30.95;21.25;;;7.70;20.50;;;;;;5063966;28;20193;-83
2023/03/28 13:17:36;;;;;;;4.05;2.13;;;8.00;18.10;;;;;;5078456;28;20250;-83